sensor_id;sensor_type;location;lat;lon;timestamp;temperature;humidity
23532;DHT22;11943;52.270;20.978;2023-05-27T00:01:50;10.60;95.20
23532;DHT22;11943;52.270;20.978;2023-05-27T00:04:15;10.60;96.20
23532;DHT22;11943;52.270;20.978;2023-05-27T00:06:41;10.50;97.90
23532;DHT22;11943;52.270;20.978;2023-05-27T00:09:07;10.50;99.10
23532;DHT22;11943;52.270;20.978;2023-05-27T00:11:33;10.50;99.50
23532;DHT22;11943;52.270;20.978;2023-05-27T00:13:58;10.40;99.60
23532;DHT22;11943;52.270;20.978;2023-05-27T00:16:24;10.40;99.80
23532;DHT22;11943;52.270;20.978;2023-05-27T00:18:50;10.40;99.90
23532;DHT22;11943;52.270;20.978;2023-05-27T00:21:16;10.40;99.90
23532;DHT22;11943;52.270;20.978;2023-05-27T00:23:46;10.30;99.90
23532;DHT22;11943;52.270;20.978;2023-05-27T00:26:12;10.30;99.90
23532;DHT22;11943;52.270;20.978;2023-05-27T00:28:37;10.20;99.90
23532;DHT22;11943;52.270;20.978;2023-05-27T00:31:03;10.20;99.90
23532;DHT22;11943;52.270;20.978;2023-05-27T00:33:29;10.20;99.90
23532;DHT22;11943;52.270;20.978;2023-05-27T00:35:54;10.20;99.90
23532;DHT22;11943;52.270;20.978;2023-05-27T00:38:20;10.10;99.90
23532;DHT22;11943;52.270;20.978;2023-05-27T00:40:46;10.00;99.90
23532;DHT22;11943;52.270;20.978;2023-05-27T00:43:12;10.00;99.90
23532;DHT22;11943;52.270;20.978;2023-05-27T00:45:38;10.10;99.90
23532;DHT22;11943;52.270;20.978;2023-05-27T00:48:03;9.90;99.90
23532;DHT22;11943;52.270;20.978;2023-05-27T00:50:30;9.90;99.90
23532;DHT22;11943;52.270;20.978;2023-05-27T00:52:56;9.90;99.90
23532;DHT22;11943;52.270;20.978;2023-05-27T00:55:23;9.90;99.90
23532;DHT22;11943;52.270;20.978;2023-05-27T00:57:49;9.90;99.90
23532;DHT22;11943;52.270;20.978;2023-05-27T01:00:15;9.90;99.90
23532;DHT22;11943;52.270;20.978;2023-05-27T01:02:41;9.90;99.90
23532;DHT22;11943;52.270;20.978;2023-05-27T01:05:12;9.80;99.90
23532;DHT22;11943;52.270;20.978;2023-05-27T01:08:08;9.80;99.90
23532;DHT22;11943;52.270;20.978;2023-05-27T01:10:50;9.80;99.90
23532;DHT22;11943;52.270;20.978;2023-05-27T01:13:37;9.80;99.90
23532;DHT22;11943;52.270;20.978;2023-05-27T01:16:09;9.70;99.90
23532;DHT22;11943;52.270;20.978;2023-05-27T01:18:36;9.70;99.90
23532;DHT22;11943;52.270;20.978;2023-05-27T01:21:06;9.60;99.90
23532;DHT22;11943;52.270;20.978;2023-05-27T01:23:32;9.60;99.90
23532;DHT22;11943;52.270;20.978;2023-05-27T01:25:58;9.60;99.90
23532;DHT22;11943;52.270;20.978;2023-05-27T01:28:25;9.60;99.90
23532;DHT22;11943;52.270;20.978;2023-05-27T01:30:54;9.50;99.90
23532;DHT22;11943;52.270;20.978;2023-05-27T01:33:24;9.50;99.90
23532;DHT22;11943;52.270;20.978;2023-05-27T01:35:59;9.50;99.90
23532;DHT22;11943;52.270;20.978;2023-05-27T01:38:28;9.50;99.90
23532;DHT22;11943;52.270;20.978;2023-05-27T01:40:57;9.40;99.90
23532;DHT22;11943;52.270;20.978;2023-05-27T01:43:23;9.40;99.90
23532;DHT22;11943;52.270;20.978;2023-05-27T01:45:49;9.40;99.90
23532;DHT22;11943;52.270;20.978;2023-05-27T01:48:15;9.40;99.90
23532;DHT22;11943;52.270;20.978;2023-05-27T01:50:41;9.40;99.90
23532;DHT22;11943;52.270;20.978;2023-05-27T01:53:07;9.40;99.90
23532;DHT22;11943;52.270;20.978;2023-05-27T01:55:32;9.30;99.90
23532;DHT22;11943;52.270;20.978;2023-05-27T01:57:58;9.40;99.90
23532;DHT22;11943;52.270;20.978;2023-05-27T02:00:24;9.30;99.90
23532;DHT22;11943;52.270;20.978;2023-05-27T02:02:50;9.30;99.90
23532;DHT22;11943;52.270;20.978;2023-05-27T02:05:15;9.30;99.90
23532;DHT22;11943;52.270;20.978;2023-05-27T02:07:41;9.20;99.90
23532;DHT22;11943;52.270;20.978;2023-05-27T02:10:07;9.20;99.90
23532;DHT22;11943;52.270;20.978;2023-05-27T02:12:33;9.30;99.90
23532;DHT22;11943;52.270;20.978;2023-05-27T02:14:59;9.20;99.90
23532;DHT22;11943;52.270;20.978;2023-05-27T02:17:24;9.20;99.90
23532;DHT22;11943;52.270;20.978;2023-05-27T02:19:50;9.20;99.90
23532;DHT22;11943;52.270;20.978;2023-05-27T02:22:16;9.20;99.90
23532;DHT22;11943;52.270;20.978;2023-05-27T02:24:43;9.10;99.90
23532;DHT22;11943;52.270;20.978;2023-05-27T02:27:09;9.10;99.90
23532;DHT22;11943;52.270;20.978;2023-05-27T02:29:34;9.10;99.90
23532;DHT22;11943;52.270;20.978;2023-05-27T02:32:00;9.10;99.90
23532;DHT22;11943;52.270;20.978;2023-05-27T02:34:26;9.10;99.90
23532;DHT22;11943;52.270;20.978;2023-05-27T02:36:51;9.00;99.90
23532;DHT22;11943;52.270;20.978;2023-05-27T02:39:17;9.10;99.90
23532;DHT22;11943;52.270;20.978;2023-05-27T02:41:43;9.10;99.90
23532;DHT22;11943;52.270;20.978;2023-05-27T02:44:08;9.00;99.90
23532;DHT22;11943;52.270;20.978;2023-05-27T02:46:34;9.00;99.90
23532;DHT22;11943;52.270;20.978;2023-05-27T02:49:00;9.00;99.90
23532;DHT22;11943;52.270;20.978;2023-05-27T02:51:27;9.00;99.90
23532;DHT22;11943;52.270;20.978;2023-05-27T02:53:53;9.00;99.90
23532;DHT22;11943;52.270;20.978;2023-05-27T02:56:18;9.10;99.90
23532;DHT22;11943;52.270;20.978;2023-05-27T02:58:44;9.00;99.90
23532;DHT22;11943;52.270;20.978;2023-05-27T03:01:10;9.00;99.90
23532;DHT22;11943;52.270;20.978;2023-05-27T03:03:36;9.00;99.90
23532;DHT22;11943;52.270;20.978;2023-05-27T03:06:01;8.90;99.90
23532;DHT22;11943;52.270;20.978;2023-05-27T03:08:28;9.00;99.90
23532;DHT22;11943;52.270;20.978;2023-05-27T03:10:54;8.90;99.90
23532;DHT22;11943;52.270;20.978;2023-05-27T03:13:19;9.00;99.90
23532;DHT22;11943;52.270;20.978;2023-05-27T03:15:45;9.00;99.90
23532;DHT22;11943;52.270;20.978;2023-05-27T03:18:10;9.00;99.90
23532;DHT22;11943;52.270;20.978;2023-05-27T03:20:36;9.00;99.90
23532;DHT22;11943;52.270;20.978;2023-05-27T03:23:02;9.10;99.90
23532;DHT22;11943;52.270;20.978;2023-05-27T03:25:28;9.10;99.90
23532;DHT22;11943;52.270;20.978;2023-05-27T03:27:54;9.10;99.90
23532;DHT22;11943;52.270;20.978;2023-05-27T03:30:19;9.10;99.90
23532;DHT22;11943;52.270;20.978;2023-05-27T03:32:45;9.20;99.90
23532;DHT22;11943;52.270;20.978;2023-05-27T03:35:11;9.20;99.90
23532;DHT22;11943;52.270;20.978;2023-05-27T03:37:37;9.20;99.90
23532;DHT22;11943;52.270;20.978;2023-05-27T03:40:03;9.20;99.90
23532;DHT22;11943;52.270;20.978;2023-05-27T03:42:29;9.30;99.90
23532;DHT22;11943;52.270;20.978;2023-05-27T03:44:54;9.20;99.90
23532;DHT22;11943;52.270;20.978;2023-05-27T03:47:20;9.20;99.90
23532;DHT22;11943;52.270;20.978;2023-05-27T03:49:47;9.20;99.90
23532;DHT22;11943;52.270;20.978;2023-05-27T03:52:14;9.30;99.90
23532;DHT22;11943;52.270;20.978;2023-05-27T03:54:40;9.30;99.90
23532;DHT22;11943;52.270;20.978;2023-05-27T03:57:07;9.30;99.90
23532;DHT22;11943;52.270;20.978;2023-05-27T03:59:32;9.40;99.90
23532;DHT22;11943;52.270;20.978;2023-05-27T04:01:58;9.40;99.90
23532;DHT22;11943;52.270;20.978;2023-05-27T04:04:24;9.40;99.90
23532;DHT22;11943;52.270;20.978;2023-05-27T04:06:50;9.60;99.90
23532;DHT22;11943;52.270;20.978;2023-05-27T04:09:15;9.60;99.90
23532;DHT22;11943;52.270;20.978;2023-05-27T04:11:41;9.60;99.90
23532;DHT22;11943;52.270;20.978;2023-05-27T04:14:07;9.60;99.90
23532;DHT22;11943;52.270;20.978;2023-05-27T04:16:33;9.70;99.90
23532;DHT22;11943;52.270;20.978;2023-05-27T04:19:00;9.70;99.90
23532;DHT22;11943;52.270;20.978;2023-05-27T04:21:26;9.80;99.90
23532;DHT22;11943;52.270;20.978;2023-05-27T04:23:51;9.80;99.90
23532;DHT22;11943;52.270;20.978;2023-05-27T04:26:17;9.90;99.90
23532;DHT22;11943;52.270;20.978;2023-05-27T04:28:43;9.90;99.90
23532;DHT22;11943;52.270;20.978;2023-05-27T04:31:11;9.90;99.90
23532;DHT22;11943;52.270;20.978;2023-05-27T04:33:41;10.00;99.90
23532;DHT22;11943;52.270;20.978;2023-05-27T04:36:07;10.30;99.90
23532;DHT22;11943;52.270;20.978;2023-05-27T04:38:33;10.70;99.90
23532;DHT22;11943;52.270;20.978;2023-05-27T04:40:59;11.10;99.90
23532;DHT22;11943;52.270;20.978;2023-05-27T04:43:26;11.10;99.90
23532;DHT22;11943;52.270;20.978;2023-05-27T04:45:52;11.20;99.90
23532;DHT22;11943;52.270;20.978;2023-05-27T04:48:18;11.50;99.90
23532;DHT22;11943;52.270;20.978;2023-05-27T04:50:45;11.70;99.90
23532;DHT22;11943;52.270;20.978;2023-05-27T04:53:11;12.00;99.90
23532;DHT22;11943;52.270;20.978;2023-05-27T04:55:37;12.20;99.90
23532;DHT22;11943;52.270;20.978;2023-05-27T04:58:04;12.50;99.90
23532;DHT22;11943;52.270;20.978;2023-05-27T05:00:31;12.70;99.90
23532;DHT22;11943;52.270;20.978;2023-05-27T05:03:24;12.90;99.90
23532;DHT22;11943;52.270;20.978;2023-05-27T05:06:02;13.40;99.90
23532;DHT22;11943;52.270;20.978;2023-05-27T05:08:28;13.80;99.40
23532;DHT22;11943;52.270;20.978;2023-05-27T05:10:54;13.90;96.60
23532;DHT22;11943;52.270;20.978;2023-05-27T05:13:20;13.80;95.70
23532;DHT22;11943;52.270;20.978;2023-05-27T05:15:46;14.00;94.30
23532;DHT22;11943;52.270;20.978;2023-05-27T05:18:12;14.00;93.10
23532;DHT22;11943;52.270;20.978;2023-05-27T05:20:38;14.20;92.00
23532;DHT22;11943;52.270;20.978;2023-05-27T05:23:04;14.20;92.30
23532;DHT22;11943;52.270;20.978;2023-05-27T05:25:30;14.60;91.70
23532;DHT22;11943;52.270;20.978;2023-05-27T05:27:56;14.40;89.80
23532;DHT22;11943;52.270;20.978;2023-05-27T05:30:22;14.50;89.60
23532;DHT22;11943;52.270;20.978;2023-05-27T05:32:48;14.70;88.70
23532;DHT22;11943;52.270;20.978;2023-05-27T05:35:14;14.90;87.90
23532;DHT22;11943;52.270;20.978;2023-05-27T05:37:39;15.20;87.00
23532;DHT22;11943;52.270;20.978;2023-05-27T05:40:06;15.30;84.20
23532;DHT22;11943;52.270;20.978;2023-05-27T05:42:31;15.60;82.10
23532;DHT22;11943;52.270;20.978;2023-05-27T05:44:57;15.80;81.10
23532;DHT22;11943;52.270;20.978;2023-05-27T05:47:23;15.60;80.20
23532;DHT22;11943;52.270;20.978;2023-05-27T05:49:48;15.60;80.40
23532;DHT22;11943;52.270;20.978;2023-05-27T05:52:14;15.30;82.10
23532;DHT22;11943;52.270;20.978;2023-05-27T05:54:40;15.20;82.50
23532;DHT22;11943;52.270;20.978;2023-05-27T05:57:05;15.60;80.70
23532;DHT22;11943;52.270;20.978;2023-05-27T05:59:31;15.80;79.60
23532;DHT22;11943;52.270;20.978;2023-05-27T06:01:57;16.10;79.30
23532;DHT22;11943;52.270;20.978;2023-05-27T06:04:23;16.10;75.10
23532;DHT22;11943;52.270;20.978;2023-05-27T06:06:48;16.10;73.70
23532;DHT22;11943;52.270;20.978;2023-05-27T06:09:14;16.30;74.40
23532;DHT22;11943;52.270;20.978;2023-05-27T06:11:40;16.20;73.70
23532;DHT22;11943;52.270;20.978;2023-05-27T06:14:05;16.50;72.90
23532;DHT22;11943;52.270;20.978;2023-05-27T06:16:32;16.90;72.50
23532;DHT22;11943;52.270;20.978;2023-05-27T06:18:58;17.10;69.90
23532;DHT22;11943;52.270;20.978;2023-05-27T06:21:24;16.80;68.90
23532;DHT22;11943;52.270;20.978;2023-05-27T06:23:49;16.60;69.60
23532;DHT22;11943;52.270;20.978;2023-05-27T06:26:15;16.50;70.20
23532;DHT22;11943;52.270;20.978;2023-05-27T06:28:41;16.30;73.10
23532;DHT22;11943;52.270;20.978;2023-05-27T06:31:06;16.10;71.80
23532;DHT22;11943;52.270;20.978;2023-05-27T06:33:32;16.00;68.60
23532;DHT22;11943;52.270;20.978;2023-05-27T06:35:57;15.60;70.90
23532;DHT22;11943;52.270;20.978;2023-05-27T06:38:23;15.30;74.20
23532;DHT22;11943;52.270;20.978;2023-05-27T06:40:49;15.30;72.50
23532;DHT22;11943;52.270;20.978;2023-05-27T06:43:15;15.10;73.00
23532;DHT22;11943;52.270;20.978;2023-05-27T06:45:40;15.20;74.90
23532;DHT22;11943;52.270;20.978;2023-05-27T06:48:06;15.40;76.60
23532;DHT22;11943;52.270;20.978;2023-05-27T06:50:32;15.30;73.40
23532;DHT22;11943;52.270;20.978;2023-05-27T06:52:59;15.40;75.20
23532;DHT22;11943;52.270;20.978;2023-05-27T06:55:24;15.40;71.30
23532;DHT22;11943;52.270;20.978;2023-05-27T06:57:50;15.50;73.20
23532;DHT22;11943;52.270;20.978;2023-05-27T07:00:16;15.60;70.70
23532;DHT22;11943;52.270;20.978;2023-05-27T07:02:42;15.60;70.80
23532;DHT22;11943;52.270;20.978;2023-05-27T07:05:07;15.70;70.00
23532;DHT22;11943;52.270;20.978;2023-05-27T07:07:33;15.90;68.80
23532;DHT22;11943;52.270;20.978;2023-05-27T07:09:59;15.60;67.20
23532;DHT22;11943;52.270;20.978;2023-05-27T07:12:25;15.90;68.70
23532;DHT22;11943;52.270;20.978;2023-05-27T07:14:50;16.00;67.40
23532;DHT22;11943;52.270;20.978;2023-05-27T07:17:16;15.90;68.50
23532;DHT22;11943;52.270;20.978;2023-05-27T07:19:41;16.30;68.40
23532;DHT22;11943;52.270;20.978;2023-05-27T07:22:07;16.40;66.90
23532;DHT22;11943;52.270;20.978;2023-05-27T07:24:33;16.50;65.60
23532;DHT22;11943;52.270;20.978;2023-05-27T07:26:58;16.60;66.30
23532;DHT22;11943;52.270;20.978;2023-05-27T07:29:25;16.80;66.40
23532;DHT22;11943;52.270;20.978;2023-05-27T07:31:50;16.80;66.00
23532;DHT22;11943;52.270;20.978;2023-05-27T07:34:16;17.00;62.10
23532;DHT22;11943;52.270;20.978;2023-05-27T07:36:41;16.90;62.90
23532;DHT22;11943;52.270;20.978;2023-05-27T07:39:07;17.00;59.90
23532;DHT22;11943;52.270;20.978;2023-05-27T07:41:33;16.90;60.60
23532;DHT22;11943;52.270;20.978;2023-05-27T07:43:59;17.00;59.80
23532;DHT22;11943;52.270;20.978;2023-05-27T07:46:24;17.20;59.50
23532;DHT22;11943;52.270;20.978;2023-05-27T07:48:50;17.40;57.70
23532;DHT22;11943;52.270;20.978;2023-05-27T07:51:16;17.50;56.30
23532;DHT22;11943;52.270;20.978;2023-05-27T07:53:42;17.60;56.90
23532;DHT22;11943;52.270;20.978;2023-05-27T07:56:07;17.70;56.40
23532;DHT22;11943;52.270;20.978;2023-05-27T07:58:33;17.70;57.80
23532;DHT22;11943;52.270;20.978;2023-05-27T08:00:58;18.00;57.80
23532;DHT22;11943;52.270;20.978;2023-05-27T08:03:24;18.00;56.50
23532;DHT22;11943;52.270;20.978;2023-05-27T08:05:50;18.20;55.10
23532;DHT22;11943;52.270;20.978;2023-05-27T08:08:16;18.20;54.90
23532;DHT22;11943;52.270;20.978;2023-05-27T08:10:41;18.00;54.40
23532;DHT22;11943;52.270;20.978;2023-05-27T08:13:09;17.50;54.40
23532;DHT22;11943;52.270;20.978;2023-05-27T08:15:35;17.50;55.90
23532;DHT22;11943;52.270;20.978;2023-05-27T08:18:01;17.80;55.90
23532;DHT22;11943;52.270;20.978;2023-05-27T08:20:27;17.80;54.40
23532;DHT22;11943;52.270;20.978;2023-05-27T08:22:52;17.40;55.30
23532;DHT22;11943;52.270;20.978;2023-05-27T08:25:18;17.80;55.80
23532;DHT22;11943;52.270;20.978;2023-05-27T08:27:53;17.80;54.40
23532;DHT22;11943;52.270;20.978;2023-05-27T08:30:19;17.60;53.10
23532;DHT22;11943;52.270;20.978;2023-05-27T08:32:44;17.80;53.10
23532;DHT22;11943;52.270;20.978;2023-05-27T08:35:11;17.70;52.20
23532;DHT22;11943;52.270;20.978;2023-05-27T08:37:37;17.80;50.30
23532;DHT22;11943;52.270;20.978;2023-05-27T08:40:06;17.90;50.80
23532;DHT22;11943;52.270;20.978;2023-05-27T08:42:33;17.90;49.00
23532;DHT22;11943;52.270;20.978;2023-05-27T08:44:59;17.90;47.50
23532;DHT22;11943;52.270;20.978;2023-05-27T08:47:27;18.00;46.60
23532;DHT22;11943;52.270;20.978;2023-05-27T08:49:53;18.10;46.10
23532;DHT22;11943;52.270;20.978;2023-05-27T08:52:19;18.00;46.80
23532;DHT22;11943;52.270;20.978;2023-05-27T08:54:47;18.50;48.60
23532;DHT22;11943;52.270;20.978;2023-05-27T08:57:15;18.80;48.20
23532;DHT22;11943;52.270;20.978;2023-05-27T08:59:41;18.80;45.20
23532;DHT22;11943;52.270;20.978;2023-05-27T09:02:11;18.80;44.20
23532;DHT22;11943;52.270;20.978;2023-05-27T09:04:39;18.60;44.70
23532;DHT22;11943;52.270;20.978;2023-05-27T09:07:05;18.40;44.20
23532;DHT22;11943;52.270;20.978;2023-05-27T09:09:31;18.20;45.50
23532;DHT22;11943;52.270;20.978;2023-05-27T09:12:01;18.50;44.40
23532;DHT22;11943;52.270;20.978;2023-05-27T09:14:28;18.50;45.80
23532;DHT22;11943;52.270;20.978;2023-05-27T09:16:55;18.50;44.90
23532;DHT22;11943;52.270;20.978;2023-05-27T09:19:20;18.80;46.60
23532;DHT22;11943;52.270;20.978;2023-05-27T09:21:46;19.20;45.00
23532;DHT22;11943;52.270;20.978;2023-05-27T09:24:12;19.30;44.90
23532;DHT22;11943;52.270;20.978;2023-05-27T09:26:38;19.30;43.50
23532;DHT22;11943;52.270;20.978;2023-05-27T09:29:07;19.30;42.60
23532;DHT22;11943;52.270;20.978;2023-05-27T09:31:42;19.40;41.00
23532;DHT22;11943;52.270;20.978;2023-05-27T09:34:17;19.10;40.20
23532;DHT22;11943;52.270;20.978;2023-05-27T09:36:47;19.00;42.80
23532;DHT22;11943;52.270;20.978;2023-05-27T09:39:13;19.10;42.80
23532;DHT22;11943;52.270;20.978;2023-05-27T09:41:40;19.50;43.40
23532;DHT22;11943;52.270;20.978;2023-05-27T09:44:06;19.50;41.30
23532;DHT22;11943;52.270;20.978;2023-05-27T09:46:33;19.60;40.50
23532;DHT22;11943;52.270;20.978;2023-05-27T09:48:59;19.60;40.90
23532;DHT22;11943;52.270;20.978;2023-05-27T09:51:28;19.50;42.40
23532;DHT22;11943;52.270;20.978;2023-05-27T09:53:54;19.20;40.70
23532;DHT22;11943;52.270;20.978;2023-05-27T09:56:27;19.30;41.80
23532;DHT22;11943;52.270;20.978;2023-05-27T09:58:56;19.70;42.00
23532;DHT22;11943;52.270;20.978;2023-05-27T10:01:27;19.80;42.80
23532;DHT22;11943;52.270;20.978;2023-05-27T10:03:57;19.70;40.90
23532;DHT22;11943;52.270;20.978;2023-05-27T10:06:23;19.20;40.00
23532;DHT22;11943;52.270;20.978;2023-05-27T10:08:50;19.50;40.50
23532;DHT22;11943;52.270;20.978;2023-05-27T10:11:18;19.40;39.60
23532;DHT22;11943;52.270;20.978;2023-05-27T10:13:45;19.50;40.50
23532;DHT22;11943;52.270;20.978;2023-05-27T10:16:21;19.60;38.90
23532;DHT22;11943;52.270;20.978;2023-05-27T10:18:47;19.80;40.40
23532;DHT22;11943;52.270;20.978;2023-05-27T10:21:30;20.00;36.30
23532;DHT22;11943;52.270;20.978;2023-05-27T10:24:00;20.00;37.40
23532;DHT22;11943;52.270;20.978;2023-05-27T10:26:36;20.10;39.20
23532;DHT22;11943;52.270;20.978;2023-05-27T10:29:09;19.90;38.70
23532;DHT22;11943;52.270;20.978;2023-05-27T10:31:46;20.00;38.20
23532;DHT22;11943;52.270;20.978;2023-05-27T10:34:12;20.00;39.30
23532;DHT22;11943;52.270;20.978;2023-05-27T10:36:38;20.00;39.50
23532;DHT22;11943;52.270;20.978;2023-05-27T10:39:15;20.20;39.70
23532;DHT22;11943;52.270;20.978;2023-05-27T10:41:52;20.20;40.10
23532;DHT22;11943;52.270;20.978;2023-05-27T10:44:31;20.00;38.80
23532;DHT22;11943;52.270;20.978;2023-05-27T10:47:01;20.10;38.50
23532;DHT22;11943;52.270;20.978;2023-05-27T10:49:27;20.30;38.90
23532;DHT22;11943;52.270;20.978;2023-05-27T10:54:36;20.60;36.60
23532;DHT22;11943;52.270;20.978;2023-05-27T10:57:02;20.30;36.50
23532;DHT22;11943;52.270;20.978;2023-05-27T11:02:09;20.20;38.10
23532;DHT22;11943;52.270;20.978;2023-05-27T11:04:36;20.30;37.90
23532;DHT22;11943;52.270;20.978;2023-05-27T11:07:03;20.50;38.20
23532;DHT22;11943;52.270;20.978;2023-05-27T11:09:29;20.40;37.80
23532;DHT22;11943;52.270;20.978;2023-05-27T11:11:56;20.20;36.70
23532;DHT22;11943;52.270;20.978;2023-05-27T11:14:23;20.40;37.40
23532;DHT22;11943;52.270;20.978;2023-05-27T11:16:48;20.60;35.70
23532;DHT22;11943;52.270;20.978;2023-05-27T11:19:23;20.30;35.10
23532;DHT22;11943;52.270;20.978;2023-05-27T11:21:48;20.10;37.60
23532;DHT22;11943;52.270;20.978;2023-05-27T11:24:18;20.20;36.80
23532;DHT22;11943;52.270;20.978;2023-05-27T11:26:45;20.20;37.30
23532;DHT22;11943;52.270;20.978;2023-05-27T11:29:12;20.50;37.40
23532;DHT22;11943;52.270;20.978;2023-05-27T11:31:38;20.30;36.00
23532;DHT22;11943;52.270;20.978;2023-05-27T11:34:14;20.40;36.50
23532;DHT22;11943;52.270;20.978;2023-05-27T11:36:40;20.40;37.00
23532;DHT22;11943;52.270;20.978;2023-05-27T11:39:11;20.30;34.70
23532;DHT22;11943;52.270;20.978;2023-05-27T11:41:49;20.30;35.60
23532;DHT22;11943;52.270;20.978;2023-05-27T11:44:16;20.40;35.60
23532;DHT22;11943;52.270;20.978;2023-05-27T11:46:44;20.30;34.70
23532;DHT22;11943;52.270;20.978;2023-05-27T11:49:11;20.50;35.80
23532;DHT22;11943;52.270;20.978;2023-05-27T11:51:39;20.50;35.90
23532;DHT22;11943;52.270;20.978;2023-05-27T11:54:04;20.50;34.80
23532;DHT22;11943;52.270;20.978;2023-05-27T11:56:30;20.60;34.50
23532;DHT22;11943;52.270;20.978;2023-05-27T11:58:57;20.60;34.60
23532;DHT22;11943;52.270;20.978;2023-05-27T12:01:22;20.40;33.60
23532;DHT22;11943;52.270;20.978;2023-05-27T12:03:48;20.30;34.20
23532;DHT22;11943;52.270;20.978;2023-05-27T12:06:14;20.40;34.10
23532;DHT22;11943;52.270;20.978;2023-05-27T12:08:43;20.50;34.80
23532;DHT22;11943;52.270;20.978;2023-05-27T12:11:09;20.60;35.10
23532;DHT22;11943;52.270;20.978;2023-05-27T12:13:35;20.80;35.20
23532;DHT22;11943;52.270;20.978;2023-05-27T12:16:01;21.20;35.40
23532;DHT22;11943;52.270;20.978;2023-05-27T12:18:28;20.80;32.60
23532;DHT22;11943;52.270;20.978;2023-05-27T12:20:55;20.90;33.90
23532;DHT22;11943;52.270;20.978;2023-05-27T12:23:21;20.80;35.40
23532;DHT22;11943;52.270;20.978;2023-05-27T12:25:47;20.80;35.30
23532;DHT22;11943;52.270;20.978;2023-05-27T12:28:12;20.90;34.40
23532;DHT22;11943;52.270;20.978;2023-05-27T12:30:38;20.80;35.20
23532;DHT22;11943;52.270;20.978;2023-05-27T12:33:05;20.80;35.10
23532;DHT22;11943;52.270;20.978;2023-05-27T12:35:31;20.70;35.10
23532;DHT22;11943;52.270;20.978;2023-05-27T12:37:57;20.70;35.70
23532;DHT22;11943;52.270;20.978;2023-05-27T12:40:24;20.80;34.80
23532;DHT22;11943;52.270;20.978;2023-05-27T12:42:50;21.00;36.60
23532;DHT22;11943;52.270;20.978;2023-05-27T12:45:15;20.90;34.80
23532;DHT22;11943;52.270;20.978;2023-05-27T12:47:41;20.90;35.20
23532;DHT22;11943;52.270;20.978;2023-05-27T12:50:07;20.90;35.70
23532;DHT22;11943;52.270;20.978;2023-05-27T12:52:33;21.00;34.70
23532;DHT22;11943;52.270;20.978;2023-05-27T12:55:00;20.90;36.10
23532;DHT22;11943;52.270;20.978;2023-05-27T12:57:25;21.00;34.30
23532;DHT22;11943;52.270;20.978;2023-05-27T12:59:51;21.00;36.20
23532;DHT22;11943;52.270;20.978;2023-05-27T13:02:17;21.20;35.10
23532;DHT22;11943;52.270;20.978;2023-05-27T13:04:42;21.00;34.70
23532;DHT22;11943;52.270;20.978;2023-05-27T13:07:11;20.90;36.10
23532;DHT22;11943;52.270;20.978;2023-05-27T13:09:40;21.00;36.00
23532;DHT22;11943;52.270;20.978;2023-05-27T13:12:06;20.90;36.50
23532;DHT22;11943;52.270;20.978;2023-05-27T13:14:32;21.10;35.70
23532;DHT22;11943;52.270;20.978;2023-05-27T13:16:57;21.00;34.70
23532;DHT22;11943;52.270;20.978;2023-05-27T13:19:23;21.00;35.60
23532;DHT22;11943;52.270;20.978;2023-05-27T13:21:49;21.10;35.60
23532;DHT22;11943;52.270;20.978;2023-05-27T13:24:15;21.00;35.50
23532;DHT22;11943;52.270;20.978;2023-05-27T13:26:41;21.10;36.20
23532;DHT22;11943;52.270;20.978;2023-05-27T13:29:07;21.30;36.40
23532;DHT22;11943;52.270;20.978;2023-05-27T13:31:33;21.50;35.90
23532;DHT22;11943;52.270;20.978;2023-05-27T13:33:58;21.50;35.40
23532;DHT22;11943;52.270;20.978;2023-05-27T13:36:24;21.40;35.80
23532;DHT22;11943;52.270;20.978;2023-05-27T13:38:50;21.10;35.70
23532;DHT22;11943;52.270;20.978;2023-05-27T13:41:15;20.90;36.70
23532;DHT22;11943;52.270;20.978;2023-05-27T13:43:41;20.70;37.50
23532;DHT22;11943;52.270;20.978;2023-05-27T13:46:06;20.90;38.50
23532;DHT22;11943;52.270;20.978;2023-05-27T13:48:32;20.90;36.80
23532;DHT22;11943;52.270;20.978;2023-05-27T13:50:58;20.90;37.80
23532;DHT22;11943;52.270;20.978;2023-05-27T13:53:24;20.90;37.00
23532;DHT22;11943;52.270;20.978;2023-05-27T13:55:50;20.70;37.20
23532;DHT22;11943;52.270;20.978;2023-05-27T13:58:15;20.90;36.10
23532;DHT22;11943;52.270;20.978;2023-05-27T14:00:42;20.70;36.00
23532;DHT22;11943;52.270;20.978;2023-05-27T14:03:07;20.50;36.60
23532;DHT22;11943;52.270;20.978;2023-05-27T14:05:33;20.60;35.90
23532;DHT22;11943;52.270;20.978;2023-05-27T14:08:01;20.30;35.60
23532;DHT22;11943;52.270;20.978;2023-05-27T14:10:29;20.50;36.90
23532;DHT22;11943;52.270;20.978;2023-05-27T14:12:55;20.60;36.50
23532;DHT22;11943;52.270;20.978;2023-05-27T14:15:21;20.70;37.00
23532;DHT22;11943;52.270;20.978;2023-05-27T14:17:47;20.90;38.40
23532;DHT22;11943;52.270;20.978;2023-05-27T14:20:13;20.80;37.80
23532;DHT22;11943;52.270;20.978;2023-05-27T14:22:39;20.90;38.20
23532;DHT22;11943;52.270;20.978;2023-05-27T14:25:06;21.00;38.40
23532;DHT22;11943;52.270;20.978;2023-05-27T14:27:31;20.90;37.40
23532;DHT22;11943;52.270;20.978;2023-05-27T14:29:57;20.70;37.20
23532;DHT22;11943;52.270;20.978;2023-05-27T14:32:23;20.60;37.20
23532;DHT22;11943;52.270;20.978;2023-05-27T14:34:48;20.70;38.10
23532;DHT22;11943;52.270;20.978;2023-05-27T14:37:14;20.40;36.80
23532;DHT22;11943;52.270;20.978;2023-05-27T14:39:40;20.50;37.70
23532;DHT22;11943;52.270;20.978;2023-05-27T14:42:05;20.70;38.30
23532;DHT22;11943;52.270;20.978;2023-05-27T14:44:35;20.70;38.30
23532;DHT22;11943;52.270;20.978;2023-05-27T14:47:01;20.60;37.30
23532;DHT22;11943;52.270;20.978;2023-05-27T14:49:27;20.50;37.10
23532;DHT22;11943;52.270;20.978;2023-05-27T14:51:52;20.60;36.40
23532;DHT22;11943;52.270;20.978;2023-05-27T14:54:19;20.50;36.90
23532;DHT22;11943;52.270;20.978;2023-05-27T14:56:46;20.50;37.10
23532;DHT22;11943;52.270;20.978;2023-05-27T14:59:12;20.60;37.90
23532;DHT22;11943;52.270;20.978;2023-05-27T15:01:38;20.60;38.10
23532;DHT22;11943;52.270;20.978;2023-05-27T15:04:04;20.60;37.20
23532;DHT22;11943;52.270;20.978;2023-05-27T15:06:30;20.50;37.40
23532;DHT22;11943;52.270;20.978;2023-05-27T15:08:56;20.30;37.10
23532;DHT22;11943;52.270;20.978;2023-05-27T15:11:22;20.50;39.00
23532;DHT22;11943;52.270;20.978;2023-05-27T15:13:48;20.40;38.80
23532;DHT22;11943;52.270;20.978;2023-05-27T15:16:13;20.30;38.70
23532;DHT22;11943;52.270;20.978;2023-05-27T15:18:39;20.50;38.80
23532;DHT22;11943;52.270;20.978;2023-05-27T15:21:05;20.30;38.30
23532;DHT22;11943;52.270;20.978;2023-05-27T15:23:32;20.30;38.30